Time;durP1;ratioP1;P1;durP2;ratioP2;P2;SDS_P1;SDS_P2;PMS_P1;PMS_P2;Temp;Humidity;BMP_temperature;BMP_pressure;BME280_temperature;BME280_humidity;BME280_pressure;Samples;Min_cycle;Max_cycle;Signal;HPM_P1;HPM_P2
2024/01/08 06:33:37;;;;;;;;;;;;;;;0.99;74.79;96558.53;4256801;27;10222;-63
2024/01/08 06:35:41;;;;;;;;;;;;;;;1.29;74.37;96572.34;4265546;27;5692;-64
2024/01/08 06:37:44;;;;;;;;;;;;;;;1.49;72.27;96567.91;4258466;27;5629;-63
2024/01/08 06:39:47;;;;;;;;;;;;;;;1.56;71.50;96575.00;4266088;27;5625;-64
2024/01/08 06:41:50;;;;;;;;;;;;;;;1.68;71.53;96571.22;4263565;27;5637;-64
2024/01/08 06:43:54;;;;;;;;;;;;;;;1.71;70.04;96564.94;4260033;27;5746;-64
2024/01/08 06:45:57;;;;;;;;;;;;;;;1.80;69.53;96568.44;4241241;27;5672;-64
2024/01/08 06:48:01;;;;;;;;;;;;;;;1.93;70.36;96567.16;4256023;27;5747;-64
2024/01/08 06:50:06;;;;;;;;;;;;;;;1.96;69.26;96568.66;4253028;27;6332;-64
2024/01/08 06:52:09;;;;;;;;;;;;;;;1.93;67.92;96568.97;4262121;27;5637;-62
2024/01/08 06:54:13;;;;;;;;;;;;;;;1.90;67.37;96564.00;4265610;27;5633;-64
2024/01/08 06:56:15;;;;;;;;;;;;;;;1.85;67.78;96555.81;4251345;27;5725;-64
2024/01/08 06:58:18;;;;;;;;;;;;;;;1.88;68.36;96565.94;4263418;27;5650;-63
2024/01/08 07:00:21;;;;;;;;;;;;;;;1.99;68.34;96566.56;4259014;27;5650;-64
2024/01/08 07:02:24;;;;;;;;;;;;;;;2.02;67.75;96578.50;4264097;27;5649;-63
2024/01/08 07:04:27;;;;;;;;;;;;;;;1.97;67.50;96567.69;4265694;27;5708;-64
2024/01/08 07:06:32;;;;;;;;;;;;;;;1.98;67.54;96567.53;4265827;27;5684;-63
2024/01/08 07:08:35;;;;;;;;;;;;;;;1.97;67.62;96576.34;4265434;27;5634;-64
2024/01/08 07:10:37;;;;;;;;;;;;;;;1.98;67.72;96567.53;4265615;27;5625;-64
2024/01/08 07:12:40;;;;;;;;;;;;;;;1.94;66.42;96578.41;4265626;27;5732;-63
2024/01/08 07:14:46;;;;;;;;;;;;;;;1.86;66.29;96575.69;4255181;27;5678;-63
2024/01/08 07:16:49;;;;;;;;;;;;;;;1.80;66.30;96573.66;4248411;27;5686;-64
2024/01/08 07:18:52;;;;;;;;;;;;;;;1.88;65.99;96578.97;4248444;27;5683;-64
2024/01/08 07:20:55;;;;;;;;;;;;;;;1.91;65.36;96583.91;4259764;27;6435;-64
2024/01/08 07:23:00;;;;;;;;;;;;;;;1.88;65.75;96592.00;4264930;27;6329;-63
2024/01/08 07:25:03;;;;;;;;;;;;;;;1.85;65.96;96581.88;4265459;27;5643;-63
2024/01/08 07:27:06;;;;;;;;;;;;;;;1.89;65.22;96606.69;4252221;27;5643;-64
2024/01/08 07:29:09;;;;;;;;;;;;;;;1.79;65.54;96593.69;4248197;27;5658;-64
2024/01/08 07:31:12;;;;;;;;;;;;;;;1.84;65.98;96596.72;4253236;27;5637;-63
2024/01/08 07:33:16;;;;;;;;;;;;;;;1.82;64.71;96590.00;4255382;27;5755;-64
2024/01/08 07:35:19;;;;;;;;;;;;;;;1.85;65.06;96587.91;4236795;28;6364;-63
2024/01/08 07:37:22;;;;;;;;;;;;;;;1.87;65.22;96598.19;4228761;28;5620;-64
2024/01/08 07:39:26;;;;;;;;;;;;;;;1.97;65.51;96601.59;4219802;28;5696;-64
2024/01/08 07:41:29;;;;;;;;;;;;;;;2.01;64.70;96603.75;4219761;28;5656;-63
2024/01/08 07:43:32;;;;;;;;;;;;;;;1.97;64.58;96601.59;4219833;28;5668;-63
2024/01/08 07:45:35;;;;;;;;;;;;;;;1.95;65.28;96599.13;4219647;28;5668;-63
2024/01/08 07:47:38;;;;;;;;;;;;;;;2.02;64.26;96600.16;4237352;27;5622;-63
2024/01/08 07:49:42;;;;;;;;;;;;;;;1.95;63.58;96598.31;4244182;27;5737;-63
2024/01/08 07:51:44;;;;;;;;;;;;;;;1.87;63.81;96601.63;4236214;27;6382;-63
2024/01/08 07:53:47;;;;;;;;;;;;;;;1.88;63.16;96610.25;4236166;28;5651;-63
2024/01/08 07:55:52;;;;;;;;;;;;;;;1.95;64.21;96619.16;4236283;28;5642;-63
2024/01/08 07:57:55;;;;;;;;;;;;;;;2.04;62.93;96618.31;4236353;28;5651;-63
2024/01/08 07:59:58;;;;;;;;;;;;;;;2.05;63.23;96625.16;4236293;28;5668;-62
2024/01/08 08:02:01;;;;;;;;;;;;;;;2.13;63.03;96622.63;4236222;28;5797;-62
2024/01/08 08:04:05;;;;;;;;;;;;;;;2.12;61.47;96630.59;4248838;27;5641;-63
2024/01/08 08:06:08;;;;;;;;;;;;;;;2.10;62.54;96624.72;4239744;27;5659;-63
2024/01/08 08:08:12;;;;;;;;;;;;;;;2.16;62.69;96627.56;4241156;27;5621;-63
2024/01/08 08:10:15;;;;;;;;;;;;;;;2.15;60.89;96625.94;4253181;27;5742;-63
2024/01/08 08:12:20;;;;;;;;;;;;;;;2.11;60.56;96636.78;4246813;27;5635;-63
2024/01/08 08:14:22;;;;;;;;;;;;;;;2.09;60.66;96641.31;4236335;28;5655;-63
2024/01/08 08:16:25;;;;;;;;;;;;;;;2.14;61.49;96644.31;4243270;27;5638;-63
2024/01/08 08:18:28;;;;;;;;;;;;;;;2.19;61.01;96640.31;4253152;27;5629;-63
2024/01/08 08:20:31;;;;;;;;;;;;;;;2.22;59.77;96647.03;4253098;27;5059;-63
2024/01/08 08:22:33;;;;;;;;;;;;;;;2.18;61.13;96649.13;4244254;27;5712;-63
2024/01/08 08:24:36;;;;;;;;;;;;;;;2.28;62.24;96654.28;4217523;28;5736;-63
2024/01/08 08:26:38;;;;;;;;;;;;;;;2.39;62.63;96661.91;4219046;28;5660;-64
2024/01/08 08:28:42;;;;;;;;;;;;;;;2.48;61.99;96662.81;4218890;28;5692;-64
2024/01/08 08:30:46;;;;;;;;;;;;;;;2.52;61.59;96659.78;4227617;28;5593;-63
2024/01/08 08:32:50;;;;;;;;;;;;;;;2.54;60.25;96663.06;4223805;28;6094;-62
2024/01/08 08:34:52;;;;;;;;;;;;;;;2.49;60.36;96659.22;4218877;28;5112;-63
2024/01/08 08:36:55;;;;;;;;;;;;;;;2.51;60.25;96657.31;4218778;28;5660;-62
2024/01/08 08:38:58;;;;;;;;;;;;;;;2.54;60.50;96672.69;4218720;28;5300;-63
2024/01/08 08:41:01;;;;;;;;;;;;;;;2.53;60.38;96673.66;4243053;27;7177;-62
2024/01/08 08:43:05;;;;;;;;;;;;;;;2.52;59.87;96674.63;4239759;27;6435;-63
2024/01/08 08:45:09;;;;;;;;;;;;;;;2.47;58.52;96677.66;4234528;28;5655;-63
2024/01/08 08:47:12;;;;;;;;;;;;;;;2.32;58.44;96668.66;4235706;28;5738;-63
2024/01/08 08:49:16;;;;;;;;;;;;;;;2.29;59.67;96677.63;4241250;27;5725;-63
2024/01/08 08:51:19;;;;;;;;;;;;;;;2.29;58.75;96674.19;4245794;27;5642;-63
2024/01/08 08:53:22;;;;;;;;;;;;;;;2.28;59.83;96675.97;4235201;28;5718;-63
2024/01/08 08:55:26;;;;;;;;;;;;;;;2.29;58.22;96680.22;4251139;27;5614;-63
2024/01/08 08:57:29;;;;;;;;;;;;;;;2.25;59.26;96680.63;4236029;27;5642;-63
2024/01/08 08:59:33;;;;;;;;;;;;;;;2.26;59.58;96679.66;4235389;28;5651;-63
2024/01/08 09:01:36;;;;;;;;;;;;;;;2.21;58.08;96687.94;4235375;28;5686;-63
2024/01/08 09:03:39;;;;;;;;;;;;;;;2.14;58.18;96691.25;4233086;28;5739;-63
2024/01/08 09:05:43;;;;;;;;;;;;;;;2.08;57.51;96684.03;4219298;28;5653;-62
2024/01/08 09:07:48;;;;;;;;;;;;;;;1.98;58.29;96700.50;4235190;28;5634;-63
2024/01/08 09:09:52;;;;;;;;;;;;;;;1.93;59.00;96688.88;4245948;27;5748;-62
2024/01/08 09:11:55;;;;;;;;;;;;;;;1.99;58.53;96693.50;4249334;27;5668;-64
2024/01/08 09:13:58;;;;;;;;;;;;;;;2.01;58.69;96696.78;4235247;28;5658;-64
2024/01/08 09:16:01;;;;;;;;;;;;;;;1.99;57.55;96683.09;4247319;27;5614;-64
2024/01/08 09:18:06;;;;;;;;;;;;;;;1.93;57.90;96694.09;4252095;27;5681;-65
2024/01/08 09:20:11;;;;;;;;;;;;;;;1.89;58.87;96705.75;4252261;27;5629;-64
2024/01/08 09:22:14;;;;;;;;;;;;;;;1.93;57.75;96699.31;4246138;27;5663;-64
2024/01/08 09:24:17;;;;;;;;;;;;;;;1.91;58.87;96696.81;4234533;28;5646;-64
2024/01/08 09:26:20;;;;;;;;;;;;;;;1.94;57.32;96719.19;4235017;27;5643;-64
2024/01/08 09:28:24;;;;;;;;;;;;;;;1.89;57.31;96721.38;4234907;28;5813;-64
2024/01/08 09:30:27;;;;;;;;;;;;;;;1.78;57.40;96724.16;4250702;27;5629;-64
2024/01/08 09:32:29;;;;;;;;;;;;;;;1.73;58.02;96712.38;4251620;27;5618;-63
2024/01/08 09:34:34;;;;;;;;;;;;;;;1.77;57.83;96717.31;4251923;27;5633;-63
2024/01/08 09:36:37;;;;;;;;;;;;;;;1.87;58.04;96705.91;4243102;27;5666;-63
2024/01/08 09:38:40;;;;;;;;;;;;;;;1.86;58.04;96716.47;4251711;27;5711;-63
2024/01/08 09:40:44;;;;;;;;;;;;;;;1.86;58.12;96732.94;4252070;27;5691;-64
2024/01/08 09:42:54;;;;;;;;;;;;;;;1.90;57.87;96707.38;4250363;27;5707;-64
2024/01/08 09:44:58;;;;;;;;;;;;;;;1.96;57.68;96715.47;4251719;27;5614;-63
2024/01/08 09:47:04;;;;;;;;;;;;;;;1.95;56.78;96723.44;4242977;27;5633;-64
2024/01/08 09:49:10;;;;;;;;;;;;;;;1.96;56.79;96723.31;4251720;27;5824;-64
2024/01/08 09:51:15;;;;;;;;;;;;;;;2.01;56.43;96717.66;4251517;27;5716;-65
2024/01/08 09:53:18;;;;;;;;;;;;;;;1.98;56.68;96737.00;4251515;27;5617;-63
2024/01/08 09:55:22;;;;;;;;;;;;;;;2.02;57.17;96734.94;4251671;27;5885;-64
2024/01/08 09:57:25;;;;;;;;;;;;;;;2.11;56.94;96722.84;4251405;27;5716;-63
2024/01/08 09:59:28;;;;;;;;;;;;;;;2.15;56.52;96732.00;4235371;27;5643;-63
2024/01/08 10:01:32;;;;;;;;;;;;;;;2.18;55.83;96722.13;4234535;28;5824;-64
2024/01/08 10:03:35;;;;;;;;;;;;;;;2.21;56.60;96719.25;4234499;28;5929;-64
2024/01/08 10:05:39;;;;;;;;;;;;;;;2.27;56.79;96723.91;4234579;28;6424;-64
2024/01/08 10:07:44;;;;;;;;;;;;;;;2.31;56.23;96729.63;4235395;27;5781;-64
2024/01/08 10:09:47;;;;;;;;;;;;;;;2.26;56.04;96726.63;4251264;27;5729;-64
2024/01/08 10:11:51;;;;;;;;;;;;;;;2.31;56.34;96730.47;4251484;27;5633;-63
2024/01/08 10:13:54;;;;;;;;;;;;;;;2.36;56.08;96726.59;4240250;27;5773;-64
2024/01/08 10:15:56;;;;;;;;;;;;;;;2.33;55.74;96725.91;4234300;28;5654;-64
2024/01/08 10:18:02;;;;;;;;;;;;;;;2.30;54.79;96726.22;4234386;28;5734;-63
2024/01/08 10:20:07;;;;;;;;;;;;;;;2.25;55.68;96733.63;4247278;27;5644;-62
2024/01/08 10:22:12;;;;;;;;;;;;;;;2.28;55.91;96728.16;4251292;27;5634;-63
2024/01/08 10:24:16;;;;;;;;;;;;;;;2.33;56.25;96725.91;4251043;27;5767;-63
2024/01/08 10:26:20;;;;;;;;;;;;;;;2.39;55.59;96748.03;4251295;27;5752;-63
2024/01/08 10:28:23;;;;;;;;;;;;;;;2.34;55.53;96727.56;4251248;27;5808;-63
2024/01/08 10:30:26;;;;;;;;;;;;;;;2.20;55.11;96730.63;4243738;27;5841;-63
2024/01/08 10:32:30;;;;;;;;;;;;;;;2.17;55.74;96733.53;4233990;28;5654;-63
2024/01/08 10:34:36;;;;;;;;;;;;;;;2.21;55.87;96723.63;4233015;28;5688;-63
2024/01/08 10:36:42;;;;;;;;;;;;;;;2.22;54.95;96715.66;4217327;28;5660;-64
2024/01/08 10:38:46;;;;;;;;;;;;;;;2.19;55.49;96718.56;4217124;28;5684;-64
2024/01/08 10:40:52;;;;;;;;;;;;;;;2.22;54.95;96735.72;4217185;28;5778;-63
2024/01/08 10:42:56;;;;;;;;;;;;;;;2.20;54.92;96728.03;4217159;28;5734;-63
2024/01/08 10:44:58;;;;;;;;;;;;;;;2.19;55.26;96747.25;4223682;27;5614;-62
2024/01/08 10:47:06;;;;;;;;;;;;;;;2.17;54.73;96720.50;4251037;27;5634;-63
2024/01/08 10:49:18;;;;;;;;;;;;;;;2.21;55.64;96719.25;4251192;27;5629;-64
2024/01/08 10:51:21;;;;;;;;;;;;;;;2.30;54.85;96735.81;4235762;27;5646;-63
2024/01/08 10:53:33;;;;;;;;;;;;;;;2.32;54.85;96737.31;4233806;28;5765;-64
2024/01/08 10:55:39;;;;;;;;;;;;;;;2.31;55.04;96730.47;4234404;27;5670;-63
2024/01/08 10:57:55;;;;;;;;;;;;;;;2.33;54.71;96738.97;4249719;27;5598;-64
2024/01/08 10:59:59;;;;;;;;;;;;;;;2.32;55.21;96741.72;4251008;27;5625;-63
2024/01/08 11:02:03;;;;;;;;;;;;;;;2.36;55.13;96748.28;4251030;27;5622;-63
2024/01/08 11:04:07;;;;;;;;;;;;;;;2.41;54.98;96743.47;4250936;27;5775;-64
2024/01/08 11:06:12;;;;;;;;;;;;;;;2.33;54.07;96738.13;4250988;27;5625;-64
2024/01/08 11:08:15;;;;;;;;;;;;;;;2.24;54.78;96737.19;4245140;27;5845;-61
2024/01/08 11:10:22;;;;;;;;;;;;;;;2.32;54.90;96742.53;4237061;28;5675;-63
2024/01/08 11:12:25;;;;;;;;;;;;;;;2.26;54.05;96744.88;4244206;27;5622;-63
2024/01/08 11:14:31;;;;;;;;;;;;;;;2.12;54.23;96748.78;4254180;27;5629;-63
2024/01/08 11:16:36;;;;;;;;;;;;;;;2.06;54.67;96741.53;4237094;27;5643;-62
2024/01/08 11:18:40;;;;;;;;;;;;;;;2.09;55.08;96743.84;4220054;28;5796;-63
2024/01/08 11:20:45;;;;;;;;;;;;;;;2.15;54.60;96742.44;4220193;28;5795;-63
2024/01/08 11:22:48;;;;;;;;;;;;;;;2.15;54.38;96750.28;4240805;27;5895;-63
2024/01/08 11:24:56;;;;;;;;;;;;;;;2.14;54.31;96752.06;4251277;27;6739;-63
2024/01/08 11:26:59;;;;;;;;;;;;;;;2.20;54.70;96742.84;4240461;27;5622;-64
2024/01/08 11:29:03;;;;;;;;;;;;;;;2.23;54.36;96760.81;4253945;27;5629;-65
2024/01/08 11:31:40;;;;;;;;;;;;;;;2.24;54.62;96750.25;4254041;27;5630;-63
2024/01/08 11:34:16;;;;;;;;;;;;;;;2.24;54.71;96752.84;4244091;27;5655;-63
2024/01/08 11:36:29;;;;;;;;;;;;;;;2.38;54.70;96745.53;4235608;28;5725;-66
2024/01/08 11:38:34;;;;;;;;;;;;;;;2.43;53.87;96756.38;4226935;28;5849;-63
2024/01/08 11:40:37;;;;;;;;;;;;;;;2.38;54.32;96748.13;4219795;28;5672;-64
2024/01/08 11:42:41;;;;;;;;;;;;;;;2.40;54.26;96756.66;4219470;28;5676;-63
2024/01/08 11:44:43;;;;;;;;;;;;;;;2.30;53.78;96749.69;4229229;28;5639;-64
2024/01/08 11:46:46;;;;;;;;;;;;;;;2.17;54.22;96754.41;4236501;27;5714;-63
2024/01/08 11:48:50;;;;;;;;;;;;;;;2.22;54.14;96754.78;4238312;27;5749;-63
2024/01/08 11:50:53;;;;;;;;;;;;;;;2.26;54.16;96758.75;4253518;27;5792;-64
2024/01/08 11:53:01;;;;;;;;;;;;;;;2.33;54.29;96759.00;4253181;27;5632;-62
2024/01/08 11:55:06;;;;;;;;;;;;;;;2.33;53.81;96759.84;4253396;27;5732;-64
2024/01/08 11:57:08;;;;;;;;;;;;;;;2.31;54.17;96760.94;4253458;27;5720;-64
2024/01/08 11:59:11;;;;;;;;;;;;;;;2.21;53.90;96760.97;4253409;27;6338;-64
2024/01/08 12:01:17;;;;;;;;;;;;;;;2.22;53.92;96769.63;4238812;27;5643;-64
2024/01/08 12:03:23;;;;;;;;;;;;;;;2.32;54.66;96784.28;4242615;27;5653;-64
2024/01/08 12:05:28;;;;;;;;;;;;;;;2.32;53.91;96786.06;4245893;27;5647;-64
2024/01/08 12:07:34;;;;;;;;;;;;;;;2.27;53.78;96770.03;4236331;28;5670;-63
2024/01/08 12:09:37;;;;;;;;;;;;;;;2.28;54.25;96771.66;4236027;28;5642;-63
2024/01/08 12:11:41;;;;;;;;;;;;;;;2.19;53.77;96762.09;4226301;28;5597;-63
2024/01/08 12:13:46;;;;;;;;;;;;;;;2.16;54.49;96778.84;4236050;28;5650;-62
2024/01/08 12:15:49;;;;;;;;;;;;;;;2.33;54.56;96775.47;4236317;28;5741;-63
2024/01/08 12:17:51;;;;;;;;;;;;;;;2.47;54.27;96768.97;4236245;28;5647;-64
2024/01/08 12:19:56;;;;;;;;;;;;;;;2.47;54.04;96771.59;4235800;28;5651;-64
2024/01/08 12:22:00;;;;;;;;;;;;;;;2.57;54.36;96784.59;4244087;27;5789;-63
2024/01/08 12:24:03;;;;;;;;;;;;;;;2.59;53.51;96770.44;4235757;28;5647;-64
2024/01/08 12:26:06;;;;;;;;;;;;;;;2.55;53.94;96778.72;4240369;27;5110;-63
2024/01/08 12:28:09;;;;;;;;;;;;;;;2.45;53.65;96780.53;4252797;27;7700;-63
2024/01/08 12:30:13;;;;;;;;;;;;;;;2.48;53.57;96786.28;4252914;27;5779;-63
2024/01/08 12:32:19;;;;;;;;;;;;;;;2.54;53.77;96784.91;4246737;27;5733;-63
2024/01/08 12:34:21;;;;;;;;;;;;;;;2.63;54.03;96789.25;4251042;27;5625;-63
2024/01/08 12:36:26;;;;;;;;;;;;;;;2.71;53.36;96799.78;4252839;27;5649;-63
2024/01/08 12:38:31;;;;;;;;;;;;;;;2.58;53.11;96792.28;4236363;27;5646;-65
2024/01/08 12:40:34;;;;;;;;;;;;;;;2.58;53.68;96807.13;4235855;28;5674;-64
2024/01/08 12:42:37;;;;;;;;;;;;;;;2.53;53.18;96793.69;4229473;28;5680;-64
2024/01/08 12:44:41;;;;;;;;;;;;;;;2.53;53.62;96799.72;4218761;28;5781;-63
2024/01/08 12:46:44;;;;;;;;;;;;;;;2.55;53.13;96810.03;4219722;28;5783;-63
2024/01/08 12:48:47;;;;;;;;;;;;;;;2.51;53.67;96803.47;4235472;28;5666;-63
2024/01/08 12:50:50;;;;;;;;;;;;;;;2.56;53.68;96796.00;4235604;28;5650;-63
2024/01/08 12:52:54;;;;;;;;;;;;;;;2.63;53.69;96797.09;4246321;27;5728;-63
2024/01/08 12:54:58;;;;;;;;;;;;;;;2.71;53.26;96798.97;4252560;27;5618;-63
2024/01/08 12:57:01;;;;;;;;;;;;;;;2.70;52.66;96797.31;4242218;27;5840;-63
2024/01/08 12:59:04;;;;;;;;;;;;;;;2.65;53.07;96810.00;4222614;27;5841;-63
2024/01/08 13:01:07;;;;;;;;;;;;;;;2.63;53.35;96803.13;4217732;28;5668;-63
2024/01/08 13:03:11;;;;;;;;;;;;;;;2.58;53.05;96809.72;4233155;27;5720;-63
2024/01/08 13:05:14;;;;;;;;;;;;;;;2.55;52.79;96796.97;4217537;28;5805;-64
2024/01/08 13:07:16;;;;;;;;;;;;;;;2.57;53.19;96814.13;4218830;27;5676;-63
2024/01/08 13:09:19;;;;;;;;;;;;;;;2.71;53.38;96804.19;4217400;28;5775;-63
2024/01/08 13:11:24;;;;;;;;;;;;;;;2.76;52.39;96810.63;4221346;27;5664;-66
2024/01/08 13:13:26;;;;;;;;;;;;;;;2.63;52.64;96803.13;4222156;27;5778;-64
2024/01/08 13:15:31;;;;;;;;;;;;;;;2.52;52.83;96800.69;4225137;28;5761;-63
2024/01/08 13:17:35;;;;;;;;;;;;;;;2.48;53.39;96799.31;4217437;28;5672;-63
2024/01/08 13:19:38;;;;;;;;;;;;;;;2.57;53.00;96805.47;4217716;27;5664;-63
2024/01/08 13:21:42;;;;;;;;;;;;;;;2.67;53.34;96819.31;4218894;27;5691;-63
2024/01/08 13:23:46;;;;;;;;;;;;;;;2.67;52.98;96808.88;4220043;27;5672;-64
2024/01/08 13:25:51;;;;;;;;;;;;;;;2.69;53.02;96800.91;4217264;28;5686;-63
2024/01/08 13:27:55;;;;;;;;;;;;;;;2.73;52.97;96807.50;4232883;28;5737;-64
2024/01/08 13:29:58;;;;;;;;;;;;;;;2.71;52.43;96809.41;4232882;28;5752;-63
2024/01/08 13:32:01;;;;;;;;;;;;;;;2.60;52.47;96821.69;4231919;28;5627;-63
2024/01/08 13:34:06;;;;;;;;;;;;;;;2.55;52.54;96817.84;4232791;28;5651;-63
2024/01/08 13:36:10;;;;;;;;;;;;;;;2.48;52.67;96811.53;4231106;27;5727;-63
2024/01/08 13:38:13;;;;;;;;;;;;;;;2.51;52.79;96809.50;4222294;27;5633;-63
2024/01/08 13:40:20;;;;;;;;;;;;;;;2.57;52.96;96810.69;4235503;27;5633;-63
2024/01/08 13:42:24;;;;;;;;;;;;;;;2.70;53.20;96823.41;4251498;27;5720;-63
2024/01/08 13:44:28;;;;;;;;;;;;;;;2.77;53.06;96814.88;4251661;27;5613;-64
2024/01/08 13:46:33;;;;;;;;;;;;;;;2.76;52.28;96823.69;4251510;27;5742;-63
2024/01/08 13:48:36;;;;;;;;;;;;;;;2.71;52.70;96827.69;4242577;27;5659;-63
2024/01/08 13:50:40;;;;;;;;;;;;;;;2.73;52.27;96826.59;4235315;27;5651;-63
2024/01/08 13:52:43;;;;;;;;;;;;;;;2.53;52.14;96838.06;4242407;27;5631;-63
2024/01/08 13:54:46;;;;;;;;;;;;;;;2.40;52.55;96842.75;4251190;27;5633;-64
2024/01/08 13:56:48;;;;;;;;;;;;;;;2.38;53.00;96834.22;4240821;27;5639;-66
2024/01/08 13:58:52;;;;;;;;;;;;;;;2.32;52.91;96844.28;4236704;27;5691;-64
2024/01/08 14:00:55;;;;;;;;;;;;;;;2.29;53.24;96835.91;4248332;27;5163;-64
2024/01/08 14:02:58;;;;;;;;;;;;;;;2.40;53.42;96842.75;4245981;27;7673;-63
2024/01/08 14:05:06;;;;;;;;;;;;;;;2.56;53.33;96842.97;4238571;27;6394;-63
2024/01/08 14:07:10;;;;;;;;;;;;;;;2.68;52.46;96841.84;4234054;28;5789;-63
2024/01/08 14:09:13;;;;;;;;;;;;;;;2.63;52.66;96849.28;4227447;28;5612;-63
2024/01/08 14:11:16;;;;;;;;;;;;;;;2.61;52.81;96851.22;4231474;28;5639;-63
2024/01/08 14:13:20;;;;;;;;;;;;;;;2.69;52.82;96853.94;4234201;28;5702;-63
2024/01/08 14:15:24;;;;;;;;;;;;;;;2.77;52.82;96851.44;4232907;28;5695;-65
2024/01/08 14:17:28;;;;;;;;;;;;;;;2.87;52.08;96856.63;4234303;28;5730;-64
2024/01/08 14:19:32;;;;;;;;;;;;;;;2.85;52.25;96850.72;4234249;28;5852;-63
2024/01/08 14:21:34;;;;;;;;;;;;;;;2.73;52.13;96850.09;4250751;27;5626;-64
2024/01/08 14:23:37;;;;;;;;;;;;;;;2.75;52.64;96853.38;4250742;27;5645;-64
2024/01/08 14:25:42;;;;;;;;;;;;;;;2.85;52.42;96859.38;4251302;27;5614;-63
2024/01/08 14:27:44;;;;;;;;;;;;;;;2.85;52.38;96864.59;4249427;27;5630;-63
2024/01/08 14:29:50;;;;;;;;;;;;;;;2.83;51.97;96860.47;4234128;28;5790;-63
2024/01/08 14:31:54;;;;;;;;;;;;;;;2.82;52.58;96864.88;4233917;28;5888;-62
2024/01/08 14:33:57;;;;;;;;;;;;;;;2.82;51.79;96875.31;4234377;28;5781;-63
2024/01/08 14:36:02;;;;;;;;;;;;;;;2.69;51.98;96871.38;4233931;28;5674;-63
2024/01/08 14:38:06;;;;;;;;;;;;;;;2.63;52.00;96875.41;4234028;28;5741;-62
2024/01/08 14:40:11;;;;;;;;;;;;;;;2.62;52.21;96876.38;4247558;27;5692;-63
2024/01/08 14:42:14;;;;;;;;;;;;;;;2.66;52.47;96879.50;4242318;27;5792;-63
2024/01/08 14:44:17;;;;;;;;;;;;;;;2.73;52.58;96883.19;4246904;27;5683;-63
2024/01/08 14:46:21;;;;;;;;;;;;;;;2.77;52.36;96879.31;4237330;28;5702;-63
2024/01/08 14:48:24;;;;;;;;;;;;;;;2.71;52.20;96875.47;4252725;27;5835;-64
2024/01/08 14:50:30;;;;;;;;;;;;;;;2.73;52.44;96873.59;4254511;27;5783;-63
2024/01/08 14:52:33;;;;;;;;;;;;;;;2.75;52.06;96876.88;4245789;27;5662;-64
2024/01/08 14:54:36;;;;;;;;;;;;;;;2.72;51.94;96885.00;4236970;28;5639;-64
2024/01/08 14:56:39;;;;;;;;;;;;;;;2.70;52.25;96884.28;4237113;28;5906;-63
2024/01/08 14:58:42;;;;;;;;;;;;;;;2.70;51.83;96888.69;4237215;28;5663;-63
2024/01/08 15:00:46;;;;;;;;;;;;;;;2.63;52.10;96891.88;4237335;28;5889;-63
2024/01/08 15:02:49;;;;;;;;;;;;;;;2.68;52.30;96894.03;4237233;28;5682;-65
2024/01/08 15:04:51;;;;;;;;;;;;;;;2.63;52.09;96894.47;4237159;28;5651;-63
2024/01/08 15:06:56;;;;;;;;;;;;;;;2.66;52.19;96897.78;4236889;28;5765;-63
2024/01/08 15:08:58;;;;;;;;;;;;;;;2.56;52.34;96896.00;4236768;27;5651;-65
2024/01/08 15:11:06;;;;;;;;;;;;;;;2.60;52.56;96900.00;4249214;27;5625;-63
2024/01/08 15:13:10;;;;;;;;;;;;;;;2.73;52.66;96891.03;4254135;27;5633;-63
2024/01/08 15:15:13;;;;;;;;;;;;;;;2.73;52.20;96886.63;4254243;27;5815;-63
2024/01/08 15:17:17;;;;;;;;;;;;;;;2.74;52.02;96898.72;4254144;27;5621;-63
2024/01/08 15:19:19;;;;;;;;;;;;;;;2.73;52.03;96902.28;4239026;27;5652;-63
2024/01/08 15:21:23;;;;;;;;;;;;;;;2.75;52.29;96899.53;4243404;27;5633;-63
2024/01/08 15:23:28;;;;;;;;;;;;;;;2.76;52.06;96907.22;4253700;27;5665;-63
2024/01/08 15:25:32;;;;;;;;;;;;;;;2.72;51.93;96903.25;4245845;27;5698;-63
2024/01/08 15:27:36;;;;;;;;;;;;;;;2.60;52.06;96904.38;4236604;28;5710;-63
2024/01/08 15:29:39;;;;;;;;;;;;;;;2.60;52.33;96912.19;4236726;28;6462;-63
2024/01/08 15:31:43;;;;;;;;;;;;;;;2.63;52.34;96915.38;4245682;27;5641;-62
2024/01/08 15:33:49;;;;;;;;;;;;;;;2.69;52.49;96920.97;4241945;27;5651;-63
2024/01/08 15:35:52;;;;;;;;;;;;;;;2.70;52.37;96913.00;4236520;28;5639;-63
2024/01/08 15:37:56;;;;;;;;;;;;;;;2.72;52.34;96924.16;4236689;28;5650;-63
2024/01/08 15:40:00;;;;;;;;;;;;;;;2.72;52.26;96921.53;4248289;27;5629;-62
2024/01/08 15:42:03;;;;;;;;;;;;;;;2.73;52.07;96920.56;4253701;27;5622;-64
2024/01/08 15:44:07;;;;;;;;;;;;;;;2.66;52.03;96922.09;4253558;27;5622;-63
2024/01/08 15:46:10;;;;;;;;;;;;;;;2.57;52.21;96933.38;4253678;27;5621;-64
2024/01/08 15:48:14;;;;;;;;;;;;;;;2.55;52.36;96927.47;4239462;27;5639;-63
2024/01/08 15:50:17;;;;;;;;;;;;;;;2.58;52.67;96929.78;4236405;28;5775;-65
2024/01/08 15:52:21;;;;;;;;;;;;;;;2.57;52.27;96939.41;4236310;28;5894;-63
2024/01/08 15:54:24;;;;;;;;;;;;;;;2.55;52.26;96937.91;4235536;28;5836;-63
2024/01/08 15:56:29;;;;;;;;;;;;;;;2.61;52.19;96934.75;4243519;27;5629;-63
2024/01/08 15:58:32;;;;;;;;;;;;;;;2.57;52.32;96949.03;4236653;27;5631;-63
2024/01/08 16:00:35;;;;;;;;;;;;;;;2.55;52.43;96946.56;4219220;28;5749;-63
2024/01/08 16:02:39;;;;;;;;;;;;;;;2.53;52.40;96947.66;4235363;28;5880;-64
2024/01/08 16:04:42;;;;;;;;;;;;;;;2.53;52.45;96952.88;4236273;28;5662;-65
2024/01/08 16:06:46;;;;;;;;;;;;;;;2.64;52.60;96960.56;4237608;27;5658;-66
2024/01/08 16:08:52;;;;;;;;;;;;;;;2.74;52.29;96955.31;4243082;27;5868;-66
2024/01/08 16:10:56;;;;;;;;;;;;;;;2.69;52.04;96953.13;4236858;27;5650;-67
2024/01/08 16:13:00;;;;;;;;;;;;;;;2.61;52.25;96960.84;4238489;27;5844;-63
2024/01/08 16:15:03;;;;;;;;;;;;;;;2.56;52.21;96956.03;4234490;28;5746;-70
2024/01/08 16:17:06;;;;;;;;;;;;;;;2.49;52.51;96961.94;4234247;27;5722;-66
2024/01/08 16:19:09;;;;;;;;;;;;;;;2.52;52.69;96967.72;4231342;28;5635;-71
2024/01/08 16:21:12;;;;;;;;;;;;;;;2.62;52.51;96970.31;4242243;27;5625;-70
2024/01/08 16:23:14;;;;;;;;;;;;;;;2.63;52.47;96966.75;4232165;28;5784;-70
2024/01/08 16:25:18;;;;;;;;;;;;;;;2.69;52.62;96970.56;4235870;27;5654;-69
2024/01/08 16:27:21;;;;;;;;;;;;;;;2.76;52.37;96969.88;4235594;28;5818;-71
2024/01/08 16:29:25;;;;;;;;;;;;;;;2.72;52.00;96973.75;4235646;28;5825;-71
2024/01/08 16:31:27;;;;;;;;;;;;;;;2.73;52.41;96970.16;4236237;27;5654;-66
2024/01/08 16:33:30;;;;;;;;;;;;;;;2.74;52.48;96982.25;4220594;28;5664;-69
2024/01/08 16:35:34;;;;;;;;;;;;;;;2.73;52.44;96980.63;4234227;28;5635;-71
2024/01/08 16:37:39;;;;;;;;;;;;;;;2.77;52.37;96971.53;4229068;27;5746;-73
2024/01/08 16:39:42;;;;;;;;;;;;;;;2.89;52.51;96978.22;4241425;27;5750;-72
2024/01/08 16:41:46;;;;;;;;;;;;;;;2.87;52.13;96982.78;4233995;28;5642;-73
2024/01/08 16:43:48;;;;;;;;;;;;;;;2.90;52.09;96976.44;4234197;27;5662;-72
2024/01/08 16:45:53;;;;;;;;;;;;;;;2.77;51.82;96987.19;4234019;28;5675;-69
2024/01/08 16:47:56;;;;;;;;;;;;;;;2.76;52.42;96984.72;4233671;28;5657;-71
2024/01/08 16:50:01;;;;;;;;;;;;;;;2.80;52.37;96986.91;4233998;27;5654;-71
2024/01/08 16:52:05;;;;;;;;;;;;;;;2.84;52.00;96993.50;4233355;28;5677;-68
2024/01/08 16:54:09;;;;;;;;;;;;;;;2.73;52.19;96993.66;4233614;28;5737;-70
2024/01/08 16:56:13;;;;;;;;;;;;;;;2.72;52.25;96999.00;4234080;28;5706;-68
2024/01/08 16:58:16;;;;;;;;;;;;;;;2.75;52.38;96999.56;4233659;28;5651;-70
2024/01/08 17:00:20;;;;;;;;;;;;;;;2.86;52.21;96996.81;4242447;27;5639;-72
2024/01/08 17:02:24;;;;;;;;;;;;;;;2.93;52.09;97002.28;4233957;28;5647;-70
2024/01/08 17:04:26;;;;;;;;;;;;;;;2.85;51.92;97008.22;4233785;28;5740;-65
2024/01/08 17:06:31;;;;;;;;;;;;;;;2.83;51.79;97007.53;4240696;27;5661;-69
2024/01/08 17:08:33;;;;;;;;;;;;;;;2.77;51.98;97007.25;4250552;27;6513;-63
2024/01/08 17:10:36;;;;;;;;;;;;;;;2.73;52.30;97011.94;4250464;27;6436;-64
2024/01/08 17:12:39;;;;;;;;;;;;;;;2.75;52.28;97011.78;4233397;28;5442;-68
2024/01/08 17:14:41;;;;;;;;;;;;;;;2.77;52.04;97009.88;4233261;28;7015;-64
2024/01/08 17:16:44;;;;;;;;;;;;;;;2.77;52.05;97008.06;4233435;28;5745;-63
2024/01/08 17:18:48;;;;;;;;;;;;;;;2.78;51.99;97009.72;4238762;27;5749;-67
2024/01/08 17:20:52;;;;;;;;;;;;;;;2.72;52.31;97015.53;4233416;28;5749;-64
2024/01/08 17:22:55;;;;;;;;;;;;;;;2.77;52.09;97018.53;4232580;28;5662;-63
2024/01/08 17:25:01;;;;;;;;;;;;;;;2.83;52.11;97022.34;4232997;28;5667;-63
2024/01/08 17:27:05;;;;;;;;;;;;;;;2.84;51.87;97024.03;4233280;28;5650;-67
2024/01/08 17:29:09;;;;;;;;;;;;;;;2.75;52.01;97020.44;4233317;28;6332;-71
2024/01/08 17:31:11;;;;;;;;;;;;;;;2.76;52.28;97022.09;4233447;28;5722;-68
2024/01/08 17:33:14;;;;;;;;;;;;;;;2.78;52.21;97029.78;4233207;28;5646;-65
2024/01/08 17:35:19;;;;;;;;;;;;;;;2.72;52.14;97023.34;4247888;27;5618;-64